Costa Mediterranea — IBCF — position and weather

sailwx.info

Track history (hours):
 
Tides and Currents Weather Stations Pressure Air Temp Water Temp Dewpoint Dewpoint Depression Visibility Wind Speed Wind Dir Waves Ship Positions

Costa Mediterranea

Last reported at 2017-Apr-23 23:10 UTC. Time now 2017-Apr-24 11:19 UTC.
Position N 35°58' W 005°38'.

Length 293 m; draft 8 m.

Type: Passenger vessel. MMSI: 247088200.

Date/timePositionNaut miles runAvg speedWind from/ knotsBaromVisibWave heightAir tempDewpointWater temp
2017-Apr-23 23:10N 35°58' W 005°38'215.0
2017-Apr-23 23:00N 35°58' W 005°35'714.2
2017-Apr-23 22:30N 35°60' W 005°27'713.6
2017-Apr-23 22:00N 36°02' W 005°19'714.3
2017-Apr-23 21:30N 36°04' W 005°10'224 7.6
2017-Apr-22 16:03N 37°23' W 000°49'218.2
2017-Apr-22 15:58N 37°24' W 000°47'1318.1
2017-Apr-22 15:16N 37°33' W 000°36'518.1
2017-Apr-22 15:00N 37°36' W 000°32'917.9
2017-Apr-22 14:30N 37°43' W 000°24'12818.2
2017-Apr-22 07:27N 39°28' E 001°10'1418.3
2017-Apr-22 06:41N 39°39' E 001°21'318.6
2017-Apr-22 06:30N 39°42' E 001°24'918.6
2017-Apr-22 06:01N 39°49' E 001°31'1018.7
2017-Apr-22 05:30N 39°56' E 001°39'918.7
2017-Apr-22 05:00N 40°03' E 001°47'918.8
2017-Apr-22 04:30N 40°11' E 001°54'918.9
2017-Apr-22 04:00N 40°18' E 002°02'1019.2
2017-Apr-22 03:30N 40°26' E 002°10'1019.2
2017-Apr-22 03:00N 40°33' E 002°18'918.7
2017-Apr-22 02:30N 40°40' E 002°26'918.4
2017-Apr-22 02:01N 40°48' E 002°33'918.4
2017-Apr-22 01:30N 40°55' E 002°41'918.3
2017-Apr-22 01:01N 41°02' E 002°48'2518.7
2017-Apr-21 23:42N 41°21' E 003°09'518.8
2017-Apr-21 23:27N 41°25' E 003°13'6118.6
2017-Apr-21 20:11N 42°12' E 004°03'5618.2
2017-Apr-21 17:06N 42°56' E 004°51'1718.4
2017-Apr-21 16:12N 43°09' E 005°04'318.2
2017-Apr-21 16:01N 43°12' E 005°07'917.9
2017-Apr-21 15:30N 43°19' E 005°16'4 1.5
2017-Apr-21 13:05N 43°21' E 005°20'0 0.0
2017-Apr-21 12:35N 43°21' E 005°20'0 0.0
2017-Apr-21 12:11N 43°21' E 005°20'0 0.0
2017-Apr-21 11:53N 43°21' E 005°20'0 0.0
2017-Apr-21 09:53N 43°21' E 005°20'0 0.0
2017-Apr-21 09:29N 43°21' E 005°20'0 0.0
2017-Apr-21 06:17N 43°21' E 005°20'0 1.0
2017-Apr-21 05:56N 43°21' E 005°20'2 5.8
2017-Apr-21 05:30N 43°20' E 005°16'5 9.3
2017-Apr-21 04:56N 43°16' E 005°11'611.8
2017-Apr-21 04:27N 43°11' E 005°11'8912.3
2017-Apr-20 21:15N 43°11' E 007°12'414.4
2017-Apr-20 21:00N 43°13' E 007°16'714.7
2017-Apr-20 20:30N 43°18' E 007°24'814.9
2017-Apr-20 19:58N 43°23' E 007°32'715.1
2017-Apr-20 19:30N 43°28' E 007°39'815.3
2017-Apr-20 19:00N 43°33' E 007°47'1914.9
2017-Apr-20 17:42N 43°47' E 008°05'314.5
2017-Apr-20 17:30N 43°50' E 008°08'714.4
2017-Apr-20 17:00N 43°55' E 008°15'714.3
2017-Apr-20 16:30N 44°00' E 008°21'714.0
2017-Apr-20 16:01N 44°06' E 008°27'713.3
2017-Apr-20 15:30N 44°12' E 008°32'612.6
2017-Apr-20 15:00N 44°18' E 008°32'2 3.9
2017-Apr-20 14:27N 44°19' E 008°29'0 0.0
2017-Apr-20 13:21N 44°19' E 008°29'0 0.0
2017-Apr-20 12:57N 44°19' E 008°29'0 0.0
2017-Apr-20 12:30N 44°19' E 008°29'0 0.0
2017-Apr-20 11:45N 44°19' E 008°29'0 0.0
2017-Apr-20 08:45N 44°19' E 008°29'0 0.0
2017-Apr-20 06:27N 44°19' E 008°29'0 0.1
2017-Apr-20 06:00N 44°19' E 008°29'1 1.4
2017-Apr-20 05:30N 44°19' E 008°30'2 4.2
2017-Apr-20 05:00N 44°18' E 008°32'4 7.9
2017-Apr-20 04:30N 44°14' E 008°34'611.3
2017-Apr-20 04:00N 44°08' E 008°33'611.1
2017-Apr-20 03:30N 44°03' E 008°33'612.0
2017-Apr-20 03:00N 43°57' E 008°32'611.5
2017-Apr-20 02:30N 43°51' E 008°30'911.5
2017-Apr-20 01:43N 43°44' E 008°23'2511.3
2017-Apr-19 23:29N 43°23' E 008°04'3112.2
2017-Apr-19 20:57N 43°02' E 007°32'14210.1
2017-Apr-19 06:52N 43°03' E 004°18'139 5.7
2017-Apr-18 06:28N 41°21' E 002°10'1 1.3
2017-Apr-18 05:56N 41°21' E 002°10'4 5.7
2017-Apr-18 05:17N 41°17' E 002°11'411.7
2017-Apr-18 04:56N 41°13' E 002°11'714.3
2017-Apr-18 04:26N 41°06' E 002°11'714.1
2017-Apr-18 03:57N 40°59' E 002°10'614.0
2017-Apr-18 03:30N 40°53' E 002°07'713.9
2017-Apr-18 03:00N 40°47' E 002°04'714.0
2017-Apr-18 02:30N 40°40' E 002°01'714.2
2017-Apr-18 02:00N 40°33' E 001°58'713.9
2017-Apr-18 01:30N 40°27' E 001°55'713.5
2017-Apr-18 01:00N 40°20' E 001°52'713.8
2017-Apr-18 00:30N 40°14' E 001°49'714.0
2017-Apr-18 00:00N 40°07' E 001°46'713.8
2017-Apr-17 23:30N 40°01' E 001°43'713.8
2017-Apr-17 23:00N 39°54' E 001°40'713.3
2017-Apr-17 22:30N 39°48' E 001°39'713.8
2017-Apr-17 22:00N 39°41' E 001°41'714.0
2017-Apr-17 21:31N 39°34' E 001°44'714.2
2017-Apr-17 21:00N 39°28' E 001°47'713.8
2017-Apr-17 20:30N 39°22' E 001°51'714.0
2017-Apr-17 20:00N 39°18' E 001°59'713.5
2017-Apr-17 19:30N 39°17' E 002°07'813.9
2017-Apr-17 18:53N 39°17' E 002°18'614.3
2017-Apr-17 18:30N 39°17' E 002°25'713.2
2017-Apr-17 17:57N 39°22' E 002°32'614.2
2017-Apr-17 17:30N 39°28' E 002°36'611.7
2017-Apr-17 17:00N 39°33' E 002°39'1 1.1
2017-Apr-17 16:28N 39°33' E 002°38'0 0.0
2017-Apr-17 15:58N 39°33' E 002°38'0 0.0
2017-Apr-17 15:28N 39°33' E 002°38'0 0.0
2017-Apr-17 14:58N 39°33' E 002°38'0 0.0
2017-Apr-17 13:58N 39°33' E 002°38'0 0.0
2017-Apr-17 13:28N 39°33' E 002°38'0 0.0
2017-Apr-17 12:58N 39°33' E 002°38'0 0.0
2017-Apr-17 12:28N 39°33' E 002°38'0 0.0
2017-Apr-17 11:58N 39°33' E 002°38'0 0.0
2017-Apr-17 11:25N 39°33' E 002°38'0 0.0
2017-Apr-17 10:58N 39°33' E 002°38'0 0.0
2017-Apr-17 10:28N 39°33' E 002°38'0 0.0
2017-Apr-17 09:58N 39°33' E 002°38'0 0.0
2017-Apr-17 09:28N 39°33' E 002°38'0 0.0
2017-Apr-17 08:58N 39°33' E 002°38'0 0.0
2017-Apr-17 08:28N 39°33' E 002°38'0 0.0
2017-Apr-17 07:58N 39°33' E 002°38'0 0.0
2017-Apr-17 07:28N 39°33' E 002°38'0 0.0
2017-Apr-17 07:00N 39°33' E 002°38'1 1.3
2017-Apr-17 06:30N 39°33' E 002°39'4 8.2
2017-Apr-17 06:00N 39°29' E 002°36'917.3
2017-Apr-17 05:30N 39°26' E 002°26'1019.7
2017-Apr-17 05:00N 39°32' E 002°17'917.5
2017-Apr-17 04:30N 39°41' E 002°18'1020.4
2017-Apr-17 04:00N 39°50' E 002°25'1020.4
2017-Apr-17 03:30N 39°58' E 002°33'1020.5
2017-Apr-17 03:00N 40°07' E 002°40'1020.4
2017-Apr-17 02:30N 40°16' E 002°46'1020.0
2017-Apr-17 02:00N 40°24' E 002°53'1019.9
2017-Apr-17 01:30N 40°33' E 002°60'1020.0
2017-Apr-17 01:00N 40°41' E 003°07'1020.0
2017-Apr-17 00:30N 40°50' E 003°14'1120.1
2017-Apr-16 23:57N 40°59' E 003°21'1120.6
2017-Apr-16 23:26N 41°08' E 003°28'13120.4
2017-Apr-16 17:02N 43°00' E 004°59'120.7
2017-Apr-16 17:00N 43°01' E 004°60'1020.2
2017-Apr-16 16:30N 43°09' E 005°07'1019.2
2017-Apr-16 16:01N 43°17' E 005°14'6 4.5
2017-Apr-16 14:48N 43°21' E 005°20'0 0.0
2017-Apr-16 14:00N 43°21' E 005°20'0 0.0
2017-Apr-16 13:18N 43°21' E 005°20'0 0.0
2017-Apr-16 12:45N 43°21' E 005°20'0 0.0
2017-Apr-16 12:30N 43°21' E 005°20'0 0.0
2017-Apr-16 11:48N 43°21' E 005°20'0 0.0
2017-Apr-16 11:30N 43°21' E 005°20'0 0.0
2017-Apr-16 09:33N 43°21' E 005°20'0 0.0
2017-Apr-16 09:21N 43°21' E 005°20'0 0.0
2017-Apr-16 08:54N 43°21' E 005°20'0 0.0
2017-Apr-16 06:42N 43°21' E 005°20'0 0.0
2017-Apr-16 06:24N 43°21' E 005°20'0 0.0
2017-Apr-16 05:18N 43°21' E 005°20'1 1.5
2017-Apr-16 04:56N 43°21' E 005°20'3 6.7
2017-Apr-16 04:30N 43°20' E 005°16'4 7.3
2017-Apr-16 04:00N 43°18' E 005°12'1212.6
2017-Apr-16 03:04N 43°07' E 005°17'117.2
2017-Apr-16 03:00N 43°06' E 005°19'7714.3
2017-Apr-15 21:35N 43°07' E 007°05'215.2
2017-Apr-15 21:29N 43°08' E 007°07'815.2
2017-Apr-15 20:59N 43°13' E 007°15'715.1
2017-Apr-15 20:30N 43°17' E 007°22'815.4
2017-Apr-15 20:01N 43°22' E 007°30'815.7
2017-Apr-15 19:30N 43°27' E 007°38'815.7
2017-Apr-15 19:00N 43°33' E 007°47'815.5
2017-Apr-15 18:30N 43°38' E 007°54'815.4
2017-Apr-15 18:01N 43°43' E 008°02'1515.2
2017-Apr-15 17:02N 43°54' E 008°15'315.2
2017-Apr-15 16:50N 43°57' E 008°17'515.0
2017-Apr-15 16:30N 44°01' E 008°21'714.9
2017-Apr-15 16:01N 44°07' E 008°28'714.1
2017-Apr-15 15:31N 44°14' E 008°31'611.1
2017-Apr-15 15:01N 44°19' E 008°30'0 0.7
2017-Apr-15 14:28N 44°19' E 008°30'0 0.0
2017-Apr-15 13:28N 44°19' E 008°30'0 0.0
2017-Apr-15 12:58N 44°19' E 008°30'0 0.0
2017-Apr-15 12:28N 44°19' E 008°30'0 0.0
2017-Apr-15 11:58N 44°19' E 008°30'0 0.0
2017-Apr-15 11:28N 44°19' E 008°30'0 0.0
2017-Apr-15 10:58N 44°19' E 008°30'0 0.0
2017-Apr-15 10:28N 44°19' E 008°30'0 0.0
2017-Apr-15 09:58N 44°19' E 008°30'0 0.0
2017-Apr-15 09:28N 44°19' E 008°30'0 0.0
2017-Apr-15 08:58N 44°19' E 008°30'0 0.0
2017-Apr-15 08:28N 44°19' E 008°30'0 0.0
2017-Apr-15 07:58N 44°19' E 008°30'0 0.0
2017-Apr-15 07:28N 44°19' E 008°30'0 0.0
2017-Apr-15 06:58N 44°19' E 008°30'0 0.0
2017-Apr-15 06:28N 44°19' E 008°30'0 1.1
2017-Apr-15 06:01N 44°19' E 008°30'3 5.8
2017-Apr-15 05:31N 44°17' E 008°32'815.8
2017-Apr-15 05:01N 44°09' E 008°28'2918.1
2017-Apr-15 03:23N 43°46' E 008°04'918.0
2017-Apr-15 02:53N 43°38' E 007°57'617.3
2017-Apr-15 02:30N 43°34' E 007°50'917.6
2017-Apr-15 01:59N 43°28' E 007°41'917.7
2017-Apr-15 01:30N 43°22' E 007°32'918.1
2017-Apr-15 01:00N 43°16' E 007°23'918.4
2017-Apr-15 00:30N 43°10' E 007°14'10419.5
2017-Apr-14 19:10N 42°17' E 005°11'720.2
2017-Apr-14 18:50N 42°14' E 005°03'3320.1
2017-Apr-14 17:10N 42°00' E 004°22'720.1
2017-Apr-14 16:49N 41°57' E 004°14'6020.0
2017-Apr-14 13:50N 41°32' E 003°01'1020.3
2017-Apr-14 13:19N 41°28' E 002°49'1220.1
2017-Apr-14 12:42N 41°23' E 002°33'519.9
2017-Apr-14 12:28N 41°21' E 002°28'919.9
2017-Apr-14 12:00N 41°16' E 002°17'611.8
2017-Apr-14 11:30N 41°19' E 002°10'3 2.3
2017-Apr-14 10:22N 41°21' E 002°11'0 0.0
2017-Apr-14 09:58N 41°21' E 002°11'0 0.0
2017-Apr-14 09:28N 41°21' E 002°11'0 0.0
2017-Apr-14 08:40N 41°21' E 002°11'0 0.0
2017-Apr-14 08:28N 41°21' E 002°11'0 0.0
2017-Apr-14 07:58N 41°21' E 002°11'0 0.0
2017-Apr-14 07:28N 41°21' E 002°11'0 0.0
2017-Apr-14 05:30N 41°21' E 002°11'1 1.6
2017-Apr-14 05:00N 41°21' E 002°10'3 6.8
2017-Apr-14 04:30N 41°17' E 002°11'1314.2
2017-Apr-14 03:33N 41°05' E 002°03'114.9
2017-Apr-14 03:30N 41°05' E 002°03'714.8
2017-Apr-14 03:00N 40°58' E 001°58'714.4
2017-Apr-14 02:30N 40°52' E 001°53'714.4
2017-Apr-14 02:00N 40°46' E 001°48'714.6
2017-Apr-14 01:30N 40°40' E 001°43'714.9
2017-Apr-14 01:00N 40°33' E 001°38'714.9
2017-Apr-14 00:30N 40°27' E 001°34'714.9
2017-Apr-14 00:00N 40°20' E 001°28'714.7
2017-Apr-13 23:30N 40°14' E 001°24'  
Track history (hours):
 
Tides and Currents Weather Stations Pressure Air Temp Water Temp Dewpoint Dewpoint Depression Visibility Wind Speed Wind Dir Waves Ship Positions

Costa Mediterranea

Last reported at 2017-Apr-23 23:10 UTC. Time now 2017-Apr-24 11:19 UTC.
Position N 35°58' W 005°38'.

Length 293 m; draft 8 m.

Type: Passenger vessel. MMSI: 247088200.

Date/timePositionNaut miles runAvg speedWind from/ knotsBaromVisibWave heightAir tempDewpointWater temp
2017-Apr-23 23:10N 35°58' W 005°38'215.0
2017-Apr-23 23:00N 35°58' W 005°35'714.2
2017-Apr-23 22:30N 35°60' W 005°27'713.6
2017-Apr-23 22:00N 36°02' W 005°19'714.3
2017-Apr-23 21:30N 36°04' W 005°10'224 7.6
2017-Apr-22 16:03N 37°23' W 000°49'218.2
2017-Apr-22 15:58N 37°24' W 000°47'1318.1
2017-Apr-22 15:16N 37°33' W 000°36'518.1
2017-Apr-22 15:00N 37°36' W 000°32'917.9
2017-Apr-22 14:30N 37°43' W 000°24'12818.2
2017-Apr-22 07:27N 39°28' E 001°10'1418.3
2017-Apr-22 06:41N 39°39' E 001°21'318.6
2017-Apr-22 06:30N 39°42' E 001°24'918.6
2017-Apr-22 06:01N 39°49' E 001°31'1018.7
2017-Apr-22 05:30N 39°56' E 001°39'918.7
2017-Apr-22 05:00N 40°03' E 001°47'918.8
2017-Apr-22 04:30N 40°11' E 001°54'918.9
2017-Apr-22 04:00N 40°18' E 002°02'1019.2
2017-Apr-22 03:30N 40°26' E 002°10'1019.2
2017-Apr-22 03:00N 40°33' E 002°18'918.7
2017-Apr-22 02:30N 40°40' E 002°26'918.4
2017-Apr-22 02:01N 40°48' E 002°33'918.4
2017-Apr-22 01:30N 40°55' E 002°41'918.3
2017-Apr-22 01:01N 41°02' E 002°48'2518.7
2017-Apr-21 23:42N 41°21' E 003°09'518.8
2017-Apr-21 23:27N 41°25' E 003°13'6118.6
2017-Apr-21 20:11N 42°12' E 004°03'5618.2
2017-Apr-21 17:06N 42°56' E 004°51'1718.4
2017-Apr-21 16:12N 43°09' E 005°04'318.2
2017-Apr-21 16:01N 43°12' E 005°07'917.9
2017-Apr-21 15:30N 43°19' E 005°16'4 1.5
2017-Apr-21 13:05N 43°21' E 005°20'0 0.0
2017-Apr-21 12:35N 43°21' E 005°20'0 0.0
2017-Apr-21 12:11N 43°21' E 005°20'0 0.0
2017-Apr-21 11:53N 43°21' E 005°20'0 0.0
2017-Apr-21 09:53N 43°21' E 005°20'0 0.0
2017-Apr-21 09:29N 43°21' E 005°20'0 0.0
2017-Apr-21 06:17N 43°21' E 005°20'0 1.0
2017-Apr-21 05:56N 43°21' E 005°20'2 5.8
2017-Apr-21 05:30N 43°20' E 005°16'5 9.3
2017-Apr-21 04:56N 43°16' E 005°11'611.8
2017-Apr-21 04:27N 43°11' E 005°11'8912.3
2017-Apr-20 21:15N 43°11' E 007°12'414.4
2017-Apr-20 21:00N 43°13' E 007°16'714.7
2017-Apr-20 20:30N 43°18' E 007°24'814.9
2017-Apr-20 19:58N 43°23' E 007°32'715.1
2017-Apr-20 19:30N 43°28' E 007°39'815.3
2017-Apr-20 19:00N 43°33' E 007°47'1914.9
2017-Apr-20 17:42N 43°47' E 008°05'314.5
2017-Apr-20 17:30N 43°50' E 008°08'714.4
2017-Apr-20 17:00N 43°55' E 008°15'714.3
2017-Apr-20 16:30N 44°00' E 008°21'714.0
2017-Apr-20 16:01N 44°06' E 008°27'713.3
2017-Apr-20 15:30N 44°12' E 008°32'612.6
2017-Apr-20 15:00N 44°18' E 008°32'2 3.9
2017-Apr-20 14:27N 44°19' E 008°29'0 0.0
2017-Apr-20 13:21N 44°19' E 008°29'0 0.0
2017-Apr-20 12:57N 44°19' E 008°29'0 0.0
2017-Apr-20 12:30N 44°19' E 008°29'0 0.0
2017-Apr-20 11:45N 44°19' E 008°29'0 0.0
2017-Apr-20 08:45N 44°19' E 008°29'0 0.0
2017-Apr-20 06:27N 44°19' E 008°29'0 0.1
2017-Apr-20 06:00N 44°19' E 008°29'1 1.4
2017-Apr-20 05:30N 44°19' E 008°30'2 4.2
2017-Apr-20 05:00N 44°18' E 008°32'4 7.9
2017-Apr-20 04:30N 44°14' E 008°34'611.3
2017-Apr-20 04:00N 44°08' E 008°33'611.1
2017-Apr-20 03:30N 44°03' E 008°33'612.0
2017-Apr-20 03:00N 43°57' E 008°32'611.5
2017-Apr-20 02:30N 43°51' E 008°30'911.5
2017-Apr-20 01:43N 43°44' E 008°23'2511.3
2017-Apr-19 23:29N 43°23' E 008°04'3112.2
2017-Apr-19 20:57N 43°02' E 007°32'14210.1
2017-Apr-19 06:52N 43°03' E 004°18'139 5.7
2017-Apr-18 06:28N 41°21' E 002°10'1 1.3
2017-Apr-18 05:56N 41°21' E 002°10'4 5.7
2017-Apr-18 05:17N 41°17' E 002°11'411.7
2017-Apr-18 04:56N 41°13' E 002°11'714.3
2017-Apr-18 04:26N 41°06' E 002°11'714.1
2017-Apr-18 03:57N 40°59' E 002°10'614.0
2017-Apr-18 03:30N 40°53' E 002°07'713.9
2017-Apr-18 03:00N 40°47' E 002°04'714.0
2017-Apr-18 02:30N 40°40' E 002°01'714.2
2017-Apr-18 02:00N 40°33' E 001°58'713.9
2017-Apr-18 01:30N 40°27' E 001°55'713.5
2017-Apr-18 01:00N 40°20' E 001°52'713.8
2017-Apr-18 00:30N 40°14' E 001°49'714.0
2017-Apr-18 00:00N 40°07' E 001°46'713.8
2017-Apr-17 23:30N 40°01' E 001°43'713.8
2017-Apr-17 23:00N 39°54' E 001°40'713.3
2017-Apr-17 22:30N 39°48' E 001°39'713.8
2017-Apr-17 22:00N 39°41' E 001°41'714.0
2017-Apr-17 21:31N 39°34' E 001°44'714.2
2017-Apr-17 21:00N 39°28' E 001°47'713.8
2017-Apr-17 20:30N 39°22' E 001°51'714.0
2017-Apr-17 20:00N 39°18' E 001°59'713.5
2017-Apr-17 19:30N 39°17' E 002°07'813.9
2017-Apr-17 18:53N 39°17' E 002°18'614.3
2017-Apr-17 18:30N 39°17' E 002°25'713.2
2017-Apr-17 17:57N 39°22' E 002°32'614.2
2017-Apr-17 17:30N 39°28' E 002°36'611.7
2017-Apr-17 17:00N 39°33' E 002°39'1 1.1
2017-Apr-17 16:28N 39°33' E 002°38'0 0.0
2017-Apr-17 15:58N 39°33' E 002°38'0 0.0
2017-Apr-17 15:28N 39°33' E 002°38'0 0.0
2017-Apr-17 14:58N 39°33' E 002°38'0 0.0
2017-Apr-17 13:58N 39°33' E 002°38'0 0.0
2017-Apr-17 13:28N 39°33' E 002°38'0 0.0
2017-Apr-17 12:58N 39°33' E 002°38'0 0.0
2017-Apr-17 12:28N 39°33' E 002°38'0 0.0
2017-Apr-17 11:58N 39°33' E 002°38'0 0.0
2017-Apr-17 11:25N 39°33' E 002°38'0 0.0
2017-Apr-17 10:58N 39°33' E 002°38'0 0.0
2017-Apr-17 10:28N 39°33' E 002°38'0 0.0
2017-Apr-17 09:58N 39°33' E 002°38'0 0.0
2017-Apr-17 09:28N 39°33' E 002°38'0 0.0
2017-Apr-17 08:58N 39°33' E 002°38'0 0.0
2017-Apr-17 08:28N 39°33' E 002°38'0 0.0
2017-Apr-17 07:58N 39°33' E 002°38'0 0.0
2017-Apr-17 07:28N 39°33' E 002°38'0 0.0
2017-Apr-17 07:00N 39°33' E 002°38'1 1.3
2017-Apr-17 06:30N 39°33' E 002°39'4 8.2
2017-Apr-17 06:00N 39°29' E 002°36'917.3
2017-Apr-17 05:30N 39°26' E 002°26'1019.7
2017-Apr-17 05:00N 39°32' E 002°17'917.5
2017-Apr-17 04:30N 39°41' E 002°18'1020.4
2017-Apr-17 04:00N 39°50' E 002°25'1020.4
2017-Apr-17 03:30N 39°58' E 002°33'1020.5
2017-Apr-17 03:00N 40°07' E 002°40'1020.4
2017-Apr-17 02:30N 40°16' E 002°46'1020.0
2017-Apr-17 02:00N 40°24' E 002°53'1019.9
2017-Apr-17 01:30N 40°33' E 002°60'1020.0
2017-Apr-17 01:00N 40°41' E 003°07'1020.0
2017-Apr-17 00:30N 40°50' E 003°14'1120.1
2017-Apr-16 23:57N 40°59' E 003°21'1120.6
2017-Apr-16 23:26N 41°08' E 003°28'13120.4
2017-Apr-16 17:02N 43°00' E 004°59'120.7
2017-Apr-16 17:00N 43°01' E 004°60'1020.2
2017-Apr-16 16:30N 43°09' E 005°07'1019.2
2017-Apr-16 16:01N 43°17' E 005°14'6 4.5
2017-Apr-16 14:48N 43°21' E 005°20'0 0.0
2017-Apr-16 14:00N 43°21' E 005°20'0 0.0
2017-Apr-16 13:18N 43°21' E 005°20'0 0.0
2017-Apr-16 12:45N 43°21' E 005°20'0 0.0
2017-Apr-16 12:30N 43°21' E 005°20'0 0.0
2017-Apr-16 11:48N 43°21' E 005°20'0 0.0
2017-Apr-16 11:30N 43°21' E 005°20'0 0.0
2017-Apr-16 09:33N 43°21' E 005°20'0 0.0
2017-Apr-16 09:21N 43°21' E 005°20'0 0.0
2017-Apr-16 08:54N 43°21' E 005°20'0 0.0
2017-Apr-16 06:42N 43°21' E 005°20'0 0.0
2017-Apr-16 06:24N 43°21' E 005°20'0 0.0
2017-Apr-16 05:18N 43°21' E 005°20'1 1.5
2017-Apr-16 04:56N 43°21' E 005°20'3 6.7
2017-Apr-16 04:30N 43°20' E 005°16'4 7.3
2017-Apr-16 04:00N 43°18' E 005°12'1212.6
2017-Apr-16 03:04N 43°07' E 005°17'117.2
2017-Apr-16 03:00N 43°06' E 005°19'7714.3
2017-Apr-15 21:35N 43°07' E 007°05'215.2
2017-Apr-15 21:29N 43°08' E 007°07'815.2
2017-Apr-15 20:59N 43°13' E 007°15'715.1
2017-Apr-15 20:30N 43°17' E 007°22'815.4
2017-Apr-15 20:01N 43°22' E 007°30'815.7
2017-Apr-15 19:30N 43°27' E 007°38'815.7
2017-Apr-15 19:00N 43°33' E 007°47'815.5
2017-Apr-15 18:30N 43°38' E 007°54'815.4
2017-Apr-15 18:01N 43°43' E 008°02'1515.2
2017-Apr-15 17:02N 43°54' E 008°15'315.2
2017-Apr-15 16:50N 43°57' E 008°17'515.0
2017-Apr-15 16:30N 44°01' E 008°21'714.9
2017-Apr-15 16:01N 44°07' E 008°28'714.1
2017-Apr-15 15:31N 44°14' E 008°31'611.1
2017-Apr-15 15:01N 44°19' E 008°30'0 0.7
2017-Apr-15 14:28N 44°19' E 008°30'0 0.0
2017-Apr-15 13:28N 44°19' E 008°30'0 0.0
2017-Apr-15 12:58N 44°19' E 008°30'0 0.0
2017-Apr-15 12:28N 44°19' E 008°30'0 0.0
2017-Apr-15 11:58N 44°19' E 008°30'0 0.0
2017-Apr-15 11:28N 44°19' E 008°30'0 0.0
2017-Apr-15 10:58N 44°19' E 008°30'0 0.0
2017-Apr-15 10:28N 44°19' E 008°30'0 0.0
2017-Apr-15 09:58N 44°19' E 008°30'0 0.0
2017-Apr-15 09:28N 44°19' E 008°30'0 0.0
2017-Apr-15 08:58N 44°19' E 008°30'0 0.0
2017-Apr-15 08:28N 44°19' E 008°30'0 0.0
2017-Apr-15 07:58N 44°19' E 008°30'0 0.0
2017-Apr-15 07:28N 44°19' E 008°30'0 0.0
2017-Apr-15 06:58N 44°19' E 008°30'0 0.0
2017-Apr-15 06:28N 44°19' E 008°30'0 1.1
2017-Apr-15 06:01N 44°19' E 008°30'3 5.8
2017-Apr-15 05:31N 44°17' E 008°32'815.8
2017-Apr-15 05:01N 44°09' E 008°28'2918.1
2017-Apr-15 03:23N 43°46' E 008°04'918.0
2017-Apr-15 02:53N 43°38' E 007°57'617.3
2017-Apr-15 02:30N 43°34' E 007°50'917.6
2017-Apr-15 01:59N 43°28' E 007°41'917.7
2017-Apr-15 01:30N 43°22' E 007°32'918.1
2017-Apr-15 01:00N 43°16' E 007°23'918.4
2017-Apr-15 00:30N 43°10' E 007°14'10419.5
2017-Apr-14 19:10N 42°17' E 005°11'720.2
2017-Apr-14 18:50N 42°14' E 005°03'3320.1
2017-Apr-14 17:10N 42°00' E 004°22'720.1
2017-Apr-14 16:49N 41°57' E 004°14'6020.0
2017-Apr-14 13:50N 41°32' E 003°01'1020.3
2017-Apr-14 13:19N 41°28' E 002°49'1220.1
2017-Apr-14 12:42N 41°23' E 002°33'519.9
2017-Apr-14 12:28N 41°21' E 002°28'919.9
2017-Apr-14 12:00N 41°16' E 002°17'611.8
2017-Apr-14 11:30N 41°19' E 002°10'3 2.3
2017-Apr-14 10:22N 41°21' E 002°11'0 0.0
2017-Apr-14 09:58N 41°21' E 002°11'0 0.0
2017-Apr-14 09:28N 41°21' E 002°11'0 0.0
2017-Apr-14 08:40N 41°21' E 002°11'0 0.0
2017-Apr-14 08:28N 41°21' E 002°11'0 0.0
2017-Apr-14 07:58N 41°21' E 002°11'0 0.0
2017-Apr-14 07:28N 41°21' E 002°11'0 0.0
2017-Apr-14 05:30N 41°21' E 002°11'1 1.6
2017-Apr-14 05:00N 41°21' E 002°10'3 6.8
2017-Apr-14 04:30N 41°17' E 002°11'1314.2
2017-Apr-14 03:33N 41°05' E 002°03'114.9
2017-Apr-14 03:30N 41°05' E 002°03'714.8
2017-Apr-14 03:00N 40°58' E 001°58'714.4
2017-Apr-14 02:30N 40°52' E 001°53'714.4
2017-Apr-14 02:00N 40°46' E 001°48'714.6
2017-Apr-14 01:30N 40°40' E 001°43'714.9
2017-Apr-14 01:00N 40°33' E 001°38'714.9
2017-Apr-14 00:30N 40°27' E 001°34'714.9
2017-Apr-14 00:00N 40°20' E 001°28'714.7
2017-Apr-13 23:30N 40°14' E 001°24'  

Dump ship's entire track history